createdAt,value
2023-01-19T00:02:47.551Z,95888.66
2023-01-19T00:05:37.694Z,95893.09
2023-01-19T00:08:24.513Z,95891.59
2023-01-19T00:11:12.726Z,95881.75
2023-01-19T00:13:59.816Z,95900.63
2023-01-19T00:16:49.412Z,95900.00
2023-01-19T00:19:37.889Z,95909.63
2023-01-19T00:22:24.759Z,95918.19
2023-01-19T00:25:11.542Z,95907.53
2023-01-19T00:28:00.640Z,95916.69
2023-01-19T00:30:52.056Z,95925.75
2023-01-19T00:33:38.926Z,95924.78
2023-01-19T00:36:35.296Z,95941.63
2023-01-19T00:39:22.233Z,95930.97
2023-01-19T00:42:32.975Z,95932.97
2023-01-19T00:45:24.675Z,95945.09
2023-01-19T00:48:11.584Z,95943.47
2023-01-19T00:50:59.955Z,95945.59
2023-01-19T00:53:46.794Z,95959.53
2023-01-19T00:56:33.858Z,95956.41
2023-01-19T00:59:20.714Z,95961.66
2023-01-19T01:02:07.757Z,95959.22
2023-01-19T01:04:55.019Z,95954.28
2023-01-19T01:07:42.776Z,95957.72
2023-01-19T01:10:29.732Z,95960.34
2023-01-19T01:13:21.600Z,95965.75
2023-01-19T01:16:09.947Z,95963.13
2023-01-19T01:18:56.802Z,95979.72
2023-01-19T01:21:43.617Z,95987.09
2023-01-19T01:24:30.484Z,95987.91
2023-01-19T01:27:17.413Z,95993.97
2023-01-19T01:30:05.218Z,95991.66
2023-01-19T01:32:52.101Z,96006.25
2023-01-19T01:35:40.655Z,96006.59
2023-01-19T01:38:28.921Z,96016.41
2023-01-19T01:41:15.762Z,96017.22
2023-01-19T01:44:06.266Z,96016.56
2023-01-19T01:46:55.206Z,96015.09
2023-01-19T01:49:42.246Z,96015.91
2023-01-19T01:52:29.913Z,96017.72
2023-01-19T01:55:17.407Z,96021.16
2023-01-19T01:58:05.146Z,96020.66
2023-01-19T02:01:11.095Z,96025.06
2023-01-19T02:03:58.555Z,96038.06
2023-01-19T02:07:04.067Z,96039.19
2023-01-19T02:10:11.458Z,96045.25
2023-01-19T02:13:16.823Z,96037.06
2023-01-19T02:16:07.352Z,96043.13
2023-01-19T02:18:54.271Z,96048.66
2023-01-19T02:21:44.124Z,96053.09
2023-01-19T02:24:33.073Z,96054.91
2023-01-19T02:27:20.315Z,96047.50
2023-01-19T02:30:11.071Z,96049.31
2023-01-19T02:32:58.290Z,96049.63
2023-01-19T02:35:45.949Z,96055.53
2023-01-19T02:38:32.792Z,96059.16
2023-01-19T02:41:21.821Z,96059.47
2023-01-19T02:44:10.145Z,96063.88
2023-01-19T02:46:59.708Z,96063.88
2023-01-19T02:49:59.976Z,96054.69
2023-01-19T02:52:48.354Z,96053.19
2023-01-19T02:55:35.298Z,96053.34
2023-01-19T02:58:32.588Z,96057.94
2023-01-19T03:01:44.238Z,96069.25
2023-01-19T03:05:15.950Z,96074.66
2023-01-19T03:08:07.875Z,96071.34
2023-01-19T03:11:01.879Z,96072.50
2023-01-19T03:13:54.341Z,96071.66
2023-01-19T03:16:42.190Z,96077.91
2023-01-19T03:19:34.053Z,96065.91
2023-01-19T03:22:25.226Z,96068.72
2023-01-19T03:25:15.233Z,96066.22
2023-01-19T03:28:03.638Z,96066.41
2023-01-19T03:30:58.988Z,96058.72
2023-01-19T03:33:49.829Z,96058.03
2023-01-19T03:36:41.573Z,96059.97
2023-01-19T03:39:33.026Z,96066.88
2023-01-19T03:42:20.445Z,96057.53
2023-01-19T03:45:10.164Z,96066.19
2023-01-19T03:47:57.476Z,96069.94
2023-01-19T03:50:47.584Z,96075.88
2023-01-19T03:53:34.366Z,96070.78
2023-01-19T03:56:25.326Z,96075.53
2023-01-19T03:59:12.190Z,96071.91
2023-01-19T04:02:02.338Z,96063.38
2023-01-19T04:04:49.186Z,96071.91
2023-01-19T04:07:39.119Z,96069.31
2023-01-19T04:10:25.947Z,96066.81
2023-01-19T04:13:12.721Z,96071.41
2023-01-19T04:16:01.337Z,96060.94
2023-01-19T04:18:50.657Z,96066.31
2023-01-19T04:21:37.563Z,96064.84
2023-01-19T04:24:25.872Z,96066.66
2023-01-19T04:27:15.000Z,96074.34
2023-01-19T04:30:05.689Z,96075.31
2023-01-19T04:32:52.777Z,96071.22
2023-01-19T04:35:42.437Z,96073.16
2023-01-19T04:38:31.993Z,96069.88
2023-01-19T04:41:19.009Z,96071.81
2023-01-19T04:44:05.971Z,96080.84
2023-01-19T04:46:53.179Z,96074.91
2023-01-19T04:49:40.448Z,96088.81
2023-01-19T04:52:35.131Z,96083.88
2023-01-19T04:55:22.324Z,96075.53
2023-01-19T04:58:09.325Z,96080.75
2023-01-19T05:00:56.216Z,96073.38
2023-01-19T05:03:43.104Z,96069.41
2023-01-19T05:06:29.950Z,96075.34
2023-01-19T05:09:16.869Z,96066.81
2023-01-19T05:12:03.871Z,96067.28
2023-01-19T05:14:50.669Z,96069.22
2023-01-19T05:17:37.712Z,96067.56
2023-01-19T05:20:25.081Z,96068.69
2023-01-19T05:23:11.925Z,96068.84
2023-01-19T05:26:00.915Z,96072.59
2023-01-19T05:28:47.712Z,96087.50
2023-01-19T05:31:34.673Z,96084.19
2023-01-19T05:34:21.525Z,96086.81
2023-01-19T05:37:08.589Z,96083.84
2023-01-19T05:39:55.445Z,96073.84
2023-01-19T05:42:42.343Z,96088.25
2023-01-19T05:45:30.647Z,96090.06
2023-01-19T05:48:17.852Z,96091.19
2023-01-19T05:51:07.731Z,96090.50
2023-01-19T05:53:55.176Z,96088.03
2023-01-19T05:56:44.897Z,96091.63
2023-01-19T05:59:33.900Z,96089.97
2023-01-19T06:02:20.863Z,96087.81
2023-01-19T06:05:08.019Z,96099.09
2023-01-19T06:07:57.149Z,96090.72
2023-01-19T06:10:46.564Z,96096.13
2023-01-19T06:13:35.846Z,96096.94
2023-01-19T06:16:31.881Z,96103.94
2023-01-19T06:19:21.635Z,96103.81
2023-01-19T06:22:10.609Z,96115.34
2023-01-19T06:24:57.504Z,96104.56
2023-01-19T06:35:35.979Z,96132.31
2023-01-19T06:38:23.291Z,96143.91
2023-01-19T06:41:10.096Z,96140.91
2023-01-19T06:43:58.060Z,96151.34
2023-01-19T06:46:44.908Z,96149.84
2023-01-19T06:49:31.700Z,96155.09
2023-01-19T06:52:25.072Z,96164.88
2023-01-19T06:55:12.493Z,96177.00
2023-01-19T06:58:09.021Z,96181.56
2023-01-19T07:01:05.880Z,96177.06
2023-01-19T07:03:53.104Z,96179.34
2023-01-19T07:06:43.963Z,96191.50
2023-01-19T07:09:33.445Z,96189.44
2023-01-19T07:12:20.205Z,96181.88
2023-01-19T07:15:07.838Z,96201.56
2023-01-19T07:18:01.430Z,96196.38
2023-01-19T07:20:52.309Z,96206.69
2023-01-19T07:23:39.211Z,96204.63
2023-01-19T07:26:27.969Z,96214.81
2023-01-19T07:29:14.824Z,96228.59
2023-01-19T07:32:01.598Z,96220.75
2023-01-19T07:34:51.392Z,96227.88
2023-01-19T07:37:41.697Z,96229.31
2023-01-19T07:40:30.048Z,96237.16
2023-01-19T07:43:17.440Z,96231.78
2023-01-19T07:46:08.312Z,96237.16
2023-01-19T07:48:55.741Z,96238.25
2023-01-19T07:51:45.492Z,96251.16
2023-01-19T07:54:32.284Z,96241.31
2023-01-19T07:57:22.092Z,96243.59
2023-01-19T08:00:09.543Z,96240.47
2023-01-19T08:03:02.211Z,96249.00
2023-01-19T08:05:51.288Z,96246.53
2023-01-19T08:08:38.163Z,96248.31
2023-01-19T08:11:24.931Z,96256.28
2023-01-19T08:14:11.692Z,96259.72
2023-01-19T08:17:03.504Z,96267.72
2023-01-19T08:19:56.263Z,96267.56
2023-01-19T08:23:09.594Z,96254.66
2023-01-19T08:26:00.196Z,96263.75
2023-01-19T08:28:47.245Z,96268.69
2023-01-19T08:31:39.641Z,96266.47
2023-01-19T08:34:27.145Z,96274.88
2023-01-19T08:37:13.998Z,96266.75
2023-01-19T08:40:03.665Z,96267.47
2023-01-19T08:42:52.634Z,96274.06
2023-01-19T08:45:48.473Z,96284.50
2023-01-19T08:48:39.925Z,96281.50
2023-01-19T08:51:27.024Z,96293.31
2023-01-19T08:54:13.910Z,96287.41
2023-01-19T08:57:02.248Z,96294.97
2023-01-19T08:59:49.633Z,96301.00
2023-01-19T09:02:40.437Z,96294.16
2023-01-19T09:06:03.784Z,96293.44
2023-01-19T09:08:51.219Z,96291.38
2023-01-19T09:11:46.989Z,96286.56
2023-01-19T09:14:33.926Z,96293.03
2023-01-19T09:17:20.768Z,96292.34
2023-01-19T09:20:08.977Z,96297.31
2023-01-19T09:22:56.345Z,96303.22
2023-01-19T09:25:44.569Z,96302.25
2023-01-19T09:28:31.551Z,96294.69
2023-01-19T09:31:26.168Z,96291.91
2023-01-19T09:34:21.366Z,96299.09
2023-01-19T09:37:12.997Z,96289.34
2023-01-19T09:40:11.239Z,96282.75
2023-01-19T09:43:25.362Z,96286.31
2023-01-19T09:46:27.115Z,96306.25
2023-01-19T09:49:28.488Z,96298.28
2023-01-19T09:52:21.010Z,96296.47
2023-01-19T09:55:41.312Z,96297.56
2023-01-19T09:58:41.130Z,96289.72
2023-01-19T10:02:22.274Z,96289.72
2023-01-19T10:05:32.067Z,96284.06
2023-01-19T10:08:18.960Z,96286.53
2023-01-19T10:11:23.878Z,96292.59
2023-01-19T10:14:31.704Z,96283.78
2023-01-19T10:17:46.927Z,96289.53
2023-01-19T10:20:43.528Z,96287.91
2023-01-19T10:24:04.070Z,96287.03
2023-01-19T10:26:58.110Z,96278.75
2023-01-19T10:29:45.942Z,96276.00
2023-01-19T10:32:36.042Z,96273.41
2023-01-19T10:35:29.910Z,96291.97
2023-01-19T10:38:44.168Z,96272.28
2023-01-19T10:42:14.417Z,96271.44
2023-01-19T10:45:14.744Z,96283.94
2023-01-19T10:48:20.936Z,96273.94
2023-01-19T10:51:23.696Z,96282.16
2023-01-19T10:54:21.309Z,96284.50
2023-01-19T10:57:23.044Z,96287.19
2023-01-19T11:00:33.688Z,96289.81
2023-01-19T11:03:45.218Z,96273.34
2023-01-19T11:09:52.207Z,96271.13
2023-01-19T11:13:44.471Z,96270.69
2023-01-19T11:16:43.865Z,96275.34
2023-01-19T11:19:38.666Z,96268.59
2023-01-19T11:22:38.820Z,96250.72
2023-01-19T11:25:46.340Z,96268.56
2023-01-19T11:28:51.831Z,96267.06
2023-01-19T11:32:30.770Z,96253.44
2023-01-19T11:35:10.072Z,96252.47
2023-01-19T11:39:05.534Z,96254.13
2023-01-19T11:42:08.618Z,96252.84
2023-01-19T11:45:21.696Z,96263.69
2023-01-19T11:48:31.211Z,96249.34
2023-01-19T11:51:28.040Z,96262.03
2023-01-19T11:54:59.492Z,96252.78
2023-01-19T12:01:38.259Z,96246.97
2023-01-19T12:10:56.824Z,96239.81
2023-01-19T16:22:39.720Z,96267.94
2023-01-19T16:25:28.936Z,96277.63
2023-01-19T16:28:15.978Z,96272.53
2023-01-19T16:31:03.417Z,96266.59
2023-01-19T16:33:50.324Z,96269.41
2023-01-19T16:36:43.599Z,96263.31
2023-01-19T16:39:30.789Z,96269.53
2023-01-19T16:42:23.421Z,96273.81
2023-01-19T16:45:13.590Z,96268.72
2023-01-19T16:48:00.645Z,96284.81
2023-01-19T16:51:01.631Z,96276.75
2023-01-19T16:53:55.060Z,96283.34
2023-01-19T16:56:42.717Z,96288.88
2023-01-19T16:59:29.621Z,96290.22
2023-01-19T17:02:19.819Z,96293.16
2023-01-19T17:05:07.324Z,96283.94
2023-01-19T17:07:54.371Z,96282.97
2023-01-19T17:10:43.616Z,96285.88
2023-01-19T17:13:30.901Z,96310.53
2023-01-19T17:16:20.878Z,96299.69
2023-01-19T17:19:14.889Z,96311.00
2023-01-19T17:22:01.794Z,96306.34
2023-01-19T17:24:49.259Z,96312.13
2023-01-19T17:27:36.678Z,96305.53
2023-01-19T17:30:23.569Z,96304.72
2023-01-19T17:33:12.778Z,96304.06
2023-01-19T17:36:05.228Z,96301.28
2023-01-19T17:38:56.823Z,96309.16
2023-01-19T17:41:45.116Z,96317.19
2023-01-19T17:44:32.103Z,96306.16
2023-01-19T17:47:30.424Z,96320.31
2023-01-19T17:50:17.600Z,96314.84
2023-01-19T17:53:04.814Z,96307.47
2023-01-19T17:55:54.822Z,96315.84
2023-01-19T17:58:44.998Z,96315.00
2023-01-19T18:02:15.598Z,96309.56
2023-01-19T18:05:00.771Z,96324.84
2023-01-19T18:07:50.119Z,96324.84
2023-01-19T18:10:50.046Z,96331.41
2023-01-19T18:13:51.811Z,96334.63
2023-01-19T18:16:40.437Z,96324.59
2023-01-19T18:19:27.405Z,96334.81
2023-01-19T18:22:14.536Z,96333.47
2023-01-19T18:25:06.377Z,96332.19
2023-01-19T18:27:59.256Z,96329.84
2023-01-19T18:30:46.310Z,96335.63
2023-01-19T18:33:51.093Z,96329.03
2023-01-19T18:36:40.151Z,96308.81
2023-01-19T18:39:36.265Z,96320.66
2023-01-19T18:42:34.885Z,96321.63
2023-01-19T18:45:34.062Z,96319.97
2023-01-19T18:49:02.222Z,96328.22
2023-01-19T18:51:55.304Z,96327.00
2023-01-19T18:54:46.513Z,96324.69
2023-01-19T18:57:36.640Z,96312.03
2023-01-19T19:00:48.923Z,96315.47
2023-01-19T19:03:59.066Z,96320.88
2023-01-19T19:06:51.497Z,96333.25
2023-01-19T19:10:28.538Z,96314.97
2023-01-19T19:17:48.254Z,96314.44
2023-01-19T19:25:20.139Z,96314.06
2023-01-19T19:32:47.224Z,96322.75
2023-01-19T19:36:21.244Z,96322.41
2023-01-19T19:42:37.103Z,96330.09
2023-01-19T19:45:30.512Z,96325.16
2023-01-19T19:51:34.752Z,96340.59
2023-01-19T19:54:24.807Z,96340.75
2023-01-19T19:57:18.002Z,96322.81
2023-01-19T20:03:38.037Z,96338.72
2023-01-19T20:06:32.834Z,96348.22
2023-01-19T20:09:27.783Z,96338.31
2023-01-19T20:12:23.257Z,96337.78
2023-01-19T20:15:14.104Z,96354.50
2023-01-19T20:18:21.094Z,96356.81
2023-01-19T20:21:38.667Z,96361.25
2023-01-19T20:24:29.627Z,96348.88
2023-01-19T20:27:16.492Z,96362.22
2023-01-19T20:30:10.046Z,96354.66
2023-01-19T20:32:57.016Z,96360.72
2023-01-19T20:35:48.401Z,96368.19
2023-01-19T20:38:36.750Z,96367.34
2023-01-19T20:41:30.383Z,96371.78
2023-01-19T20:44:20.047Z,96372.22
2023-01-19T20:47:09.268Z,96362.72
2023-01-19T20:49:56.188Z,96353.66
2023-01-19T20:52:43.026Z,96357.09
2023-01-19T20:55:30.303Z,96368.91
2023-01-19T20:58:17.727Z,96360.16
2023-01-19T21:01:19.650Z,96373.50
2023-01-19T21:04:06.906Z,96365.25
2023-01-19T21:06:55.167Z,96370.34
2023-01-19T21:09:42.191Z,96367.03
2023-01-19T21:12:29.196Z,96369.66
2023-01-19T21:15:19.033Z,96378.22
2023-01-19T21:18:07.306Z,96371.63
2023-01-19T21:20:55.245Z,96380.97
2023-01-19T21:23:42.164Z,96367.50
2023-01-19T21:26:35.251Z,96384.72
2023-01-19T21:29:22.156Z,96373.72
2023-01-19T21:32:11.397Z,96380.28
2023-01-19T21:34:58.245Z,96388.00
2023-01-19T21:37:47.369Z,96379.06
2023-01-19T21:40:34.431Z,96380.59
2023-01-19T21:43:23.311Z,96382.38
2023-01-19T21:46:19.445Z,96370.84
2023-01-19T21:49:22.017Z,96388.28
2023-01-19T21:52:11.264Z,96376.75
2023-01-19T21:54:58.323Z,96381.69
2023-01-19T21:57:45.301Z,96386.13
2023-01-19T22:00:36.820Z,96388.72
2023-01-19T22:03:25.665Z,96388.44
2023-01-19T22:06:16.860Z,96403.06
2023-01-19T22:09:04.452Z,96395.47
2023-01-19T22:11:51.330Z,96393.84
2023-01-19T22:14:40.502Z,96392.16
2023-01-19T22:17:27.385Z,96390.91
2023-01-19T22:20:20.317Z,96389.41
2023-01-19T22:23:07.199Z,96381.97
2023-01-19T22:25:54.074Z,96374.81
2023-01-19T22:28:40.867Z,96381.56
2023-01-19T22:31:28.868Z,96377.97
2023-01-19T22:34:18.782Z,96368.75
2023-01-19T22:37:06.545Z,96389.41
2023-01-19T22:39:55.485Z,96384.19
2023-01-19T22:42:48.700Z,96382.50
2023-01-19T22:45:35.518Z,96378.69
2023-01-19T22:48:22.484Z,96380.88
2023-01-19T22:51:09.331Z,96378.25
2023-01-19T22:53:56.281Z,96390.53
2023-01-19T22:56:45.828Z,96385.13
2023-01-19T22:59:32.602Z,96392.16
2023-01-19T23:02:21.061Z,96390.38
2023-01-19T23:05:11.302Z,96374.97
2023-01-19T23:07:58.250Z,96375.09
2023-01-19T23:10:47.641Z,96373.75
2023-01-19T23:13:37.367Z,96392.16
2023-01-19T23:16:24.676Z,96385.56
2023-01-19T23:19:12.272Z,96400.31
2023-01-19T23:22:02.689Z,96402.13
2023-01-19T23:24:49.511Z,96410.78
2023-01-19T23:27:36.420Z,96417.69
2023-01-19T23:30:25.772Z,96404.72
2023-01-19T23:33:12.649Z,96407.34
2023-01-19T23:35:59.407Z,96404.72
2023-01-19T23:38:51.030Z,96406.41
2023-01-19T23:41:38.129Z,96411.09
2023-01-19T23:44:27.030Z,96411.78
2023-01-19T23:47:13.861Z,96420.31
2023-01-19T23:50:00.892Z,96411.78
2023-01-19T23:52:47.812Z,96417.97
2023-01-19T23:55:34.622Z,96422.25
2023-01-19T23:58:21.452Z,96417.00
